createdAt,value
2019-05-09T00:00:14.175Z,7.80
2019-05-09T00:01:39.807Z,8.43
2019-05-09T00:03:05.606Z,7.87
2019-05-09T00:04:33.361Z,9.20
2019-05-09T00:05:58.504Z,7.33
2019-05-09T00:07:23.971Z,8.75
2019-05-09T00:08:49.439Z,8.40
2019-05-09T00:10:15.345Z,8.27
2019-05-09T00:11:40.864Z,7.63
2019-05-09T00:13:06.355Z,8.30
2019-05-09T00:14:34.055Z,7.37
2019-05-09T00:15:59.139Z,7.33
2019-05-09T00:17:24.614Z,8.73
2019-05-09T00:18:50.103Z,8.97
2019-05-09T00:20:34.721Z,8.10
2019-05-09T00:22:00.168Z,8.47
2019-05-09T00:23:25.855Z,8.30
2019-05-09T00:24:51.336Z,10.07
2019-05-09T00:26:16.853Z,8.50
2019-05-09T00:27:43.547Z,8.50
2019-05-09T00:29:14.360Z,7.90
2019-05-09T00:30:57.479Z,8.60
2019-05-09T00:32:34.176Z,8.17
2019-05-09T00:34:04.104Z,7.70
2019-05-09T00:35:36.665Z,7.60
2019-05-09T00:37:03.085Z,8.47
2019-05-09T00:38:37.305Z,7.20
2019-05-09T00:40:04.017Z,7.43
2019-05-09T00:41:29.761Z,7.87
2019-05-09T00:42:55.637Z,8.47
2019-05-09T00:44:25.313Z,7.27
2019-05-09T00:46:09.605Z,8.13
2019-05-09T00:47:35.064Z,6.70
2019-05-09T00:49:06.783Z,7.17
2019-05-09T00:50:34.031Z,7.47
2019-05-09T00:52:03.511Z,8.07
2019-05-09T00:53:29.290Z,7.43
2019-05-09T00:54:54.735Z,6.93
2019-05-09T00:56:20.223Z,6.60
2019-05-09T00:57:45.699Z,6.90
2019-05-09T00:59:13.329Z,7.60
2019-05-09T01:00:38.392Z,8.03
2019-05-09T01:02:04.164Z,8.00
2019-05-09T01:03:29.728Z,8.20
2019-05-09T01:04:55.172Z,8.03
2019-05-09T01:06:20.683Z,8.30
2019-05-09T01:07:46.258Z,7.07
2019-05-09T01:09:13.681Z,7.87
2019-05-09T01:10:39.000Z,8.53
2019-05-09T01:12:04.444Z,6.93
2019-05-09T01:13:30.002Z,6.43
2019-05-09T01:14:55.473Z,7.63
2019-05-09T01:16:20.942Z,7.90
2019-05-09T01:17:46.418Z,8.10
2019-05-09T01:19:13.942Z,6.27
2019-05-09T01:20:39.185Z,6.90
2019-05-09T01:22:04.631Z,7.43
2019-05-09T01:23:30.143Z,7.27
2019-05-09T01:24:55.636Z,7.07
2019-05-09T01:26:21.087Z,6.50
2019-05-09T01:27:46.574Z,7.40
2019-05-09T01:29:13.762Z,7.60
2019-05-09T01:30:39.272Z,7.85
2019-05-09T01:32:08.762Z,7.10
2019-05-09T01:33:56.085Z,7.83
2019-05-09T01:35:23.291Z,6.83
2019-05-09T01:37:05.455Z,7.07
2019-05-09T01:38:30.968Z,7.23
2019-05-09T01:39:56.518Z,7.90
2019-05-09T01:41:29.149Z,8.50
2019-05-09T01:42:49.037Z,7.83
2019-05-09T01:44:14.558Z,8.93
2019-05-09T01:45:40.019Z,7.13
2019-05-09T01:47:05.888Z,7.17
2019-05-09T01:48:31.371Z,8.13
2019-05-09T01:49:56.835Z,7.57
2019-05-09T01:51:23.358Z,7.00
2019-05-09T01:52:49.048Z,6.47
2019-05-09T01:54:15.256Z,7.47
2019-05-09T01:55:59.125Z,7.33
2019-05-09T01:57:24.693Z,8.30
2019-05-09T01:58:50.176Z,6.47
2019-05-09T02:00:16.067Z,6.73
2019-05-09T02:01:43.410Z,7.57
2019-05-09T02:03:08.712Z,7.33
2019-05-09T02:04:34.324Z,7.20
2019-05-09T02:06:00.027Z,7.20
2019-05-09T02:07:25.484Z,6.73
2019-05-09T02:08:51.015Z,6.40
2019-05-09T02:10:16.575Z,7.37
2019-05-09T02:11:44.974Z,7.47
2019-05-09T02:13:09.239Z,6.73
2019-05-09T02:14:44.581Z,6.93
2019-05-09T02:16:33.644Z,8.40
2019-05-09T02:18:08.560Z,6.63
2019-05-09T02:19:37.180Z,7.00
2019-05-09T02:21:04.046Z,7.70
2019-05-09T02:22:35.961Z,8.67
2019-05-09T02:24:03.226Z,7.43
2019-05-09T02:25:28.476Z,8.70
2019-05-09T02:26:53.961Z,8.40
2019-05-09T02:28:19.447Z,7.37
2019-05-09T02:29:44.991Z,6.37
2019-05-09T02:31:10.435Z,6.50
2019-05-09T02:32:36.261Z,7.07
2019-05-09T02:34:04.656Z,6.53
2019-05-09T02:35:35.373Z,7.10
2019-05-09T02:36:58.640Z,6.40
2019-05-09T02:38:23.200Z,7.90
2019-05-09T02:39:49.159Z,7.47
2019-05-09T02:41:14.825Z,6.53
2019-05-09T02:42:40.378Z,7.37
2019-05-09T02:44:09.068Z,7.73
2019-05-09T02:45:39.645Z,6.93
2019-05-09T02:47:09.703Z,6.83
2019-05-09T02:48:38.396Z,6.90
2019-05-09T02:50:02.412Z,7.60
2019-05-09T02:51:29.153Z,6.90
2019-05-09T02:52:54.997Z,7.27
2019-05-09T02:54:20.461Z,7.80
2019-05-09T02:55:49.194Z,8.03
2019-05-09T02:57:13.236Z,6.47
2019-05-09T02:58:48.642Z,8.17
2019-05-09T03:00:34.557Z,7.87
2019-05-09T03:02:22.037Z,7.83
2019-05-09T03:03:48.191Z,7.30
2019-05-09T03:05:14.005Z,7.57
2019-05-09T03:06:39.613Z,7.43
2019-05-09T03:08:05.080Z,6.70
2019-05-09T03:09:30.584Z,7.63
2019-05-09T03:10:58.861Z,9.23
2019-05-09T03:12:34.510Z,8.23
2019-05-09T03:13:50.772Z,7.30
2019-05-09T03:15:18.559Z,8.43
2019-05-09T03:16:43.761Z,7.77
2019-05-09T03:18:09.543Z,7.00
2019-05-09T03:19:38.404Z,8.50
2019-05-09T03:21:21.123Z,8.47
2019-05-09T03:22:48.666Z,7.43
2019-05-09T03:24:13.647Z,7.83
2019-05-09T03:25:40.762Z,7.33
2019-05-09T03:27:12.339Z,7.90
2019-05-09T03:28:54.276Z,8.17
2019-05-09T03:30:24.114Z,8.23
2019-05-09T03:31:50.552Z,8.23
2019-05-09T03:33:19.817Z,7.30
2019-05-09T03:34:43.292Z,8.07
2019-05-09T03:36:08.732Z,8.00
2019-05-09T03:37:34.264Z,7.33
2019-05-09T03:39:01.498Z,8.20
2019-05-09T03:40:27.239Z,7.70
2019-05-09T03:41:52.776Z,7.43
2019-05-09T03:43:18.480Z,8.83
2019-05-09T03:44:44.088Z,7.83
2019-05-09T03:46:28.398Z,8.17
2019-05-09T03:47:58.290Z,8.20
2019-05-09T03:49:23.980Z,9.37
2019-05-09T03:50:49.424Z,7.37
2019-05-09T03:52:14.935Z,7.13
2019-05-09T03:53:40.443Z,9.10
2019-05-09T03:55:07.409Z,10.67
2019-05-09T03:56:37.570Z,8.10
2019-05-09T03:58:17.630Z,8.27
2019-05-09T03:59:42.720Z,9.47
2019-05-09T04:01:10.713Z,7.70
2019-05-09T04:02:35.432Z,8.43
2019-05-09T04:04:01.014Z,8.47
2019-05-09T04:05:27.696Z,8.97
2019-05-09T04:06:53.200Z,9.00
2019-05-09T04:08:19.413Z,7.90
2019-05-09T04:09:45.040Z,8.73
2019-05-09T04:11:10.500Z,7.90
2019-05-09T04:12:37.547Z,8.03
2019-05-09T04:14:08.293Z,8.70
2019-05-09T04:15:33.680Z,8.07
2019-05-09T04:16:59.518Z,7.97
2019-05-09T04:18:25.019Z,9.10
2019-05-09T04:19:50.460Z,7.70
2019-05-09T04:21:17.577Z,7.40
2019-05-09T04:22:43.689Z,9.00
2019-05-09T04:24:09.199Z,7.47
2019-05-09T04:25:37.679Z,7.60
2019-05-09T04:27:07.892Z,6.40
2019-05-09T04:28:33.425Z,7.10
2019-05-09T04:30:00.462Z,7.50
2019-05-09T04:31:27.825Z,7.30
2019-05-09T04:32:53.083Z,8.17
2019-05-09T04:34:18.592Z,7.60
2019-05-09T04:35:44.148Z,9.50
2019-05-09T04:37:12.120Z,8.73
2019-05-09T04:38:39.736Z,7.83
2019-05-09T04:40:03.969Z,7.27
2019-05-09T04:41:29.531Z,7.43
2019-05-09T04:43:08.868Z,8.30
2019-05-09T04:44:30.125Z,8.07
2019-05-09T04:46:00.593Z,7.80
2019-05-09T04:47:27.790Z,8.03
2019-05-09T04:48:54.171Z,7.30
2019-05-09T04:50:24.833Z,8.87
2019-05-09T04:51:47.921Z,8.63
2019-05-09T04:53:13.648Z,7.60
2019-05-09T04:54:39.172Z,7.53
2019-05-09T04:56:11.255Z,7.90
2019-05-09T04:57:38.242Z,8.10
2019-05-09T04:59:03.920Z,7.90
2019-05-09T05:00:48.235Z,7.30
2019-05-09T05:02:30.046Z,7.47
2019-05-09T05:03:57.339Z,7.70
2019-05-09T05:05:23.013Z,7.70
2019-05-09T05:06:48.525Z,7.90
2019-05-09T05:08:14.009Z,7.60
2019-05-09T05:09:39.636Z,7.40
2019-05-09T05:11:07.323Z,7.30
2019-05-09T05:12:32.264Z,7.10
2019-05-09T05:13:58.634Z,8.27
2019-05-09T05:15:24.526Z,7.10
2019-05-09T05:16:53.236Z,8.50
2019-05-09T05:18:20.238Z,6.93
2019-05-09T05:19:47.464Z,9.10
2019-05-09T05:21:12.835Z,7.13
2019-05-09T05:22:52.847Z,7.50
2019-05-09T05:24:27.757Z,8.30
2019-05-09T05:25:53.210Z,8.07
2019-05-09T05:27:19.029Z,8.87
2019-05-09T05:28:44.607Z,8.40
2019-05-09T05:30:10.741Z,7.20
2019-05-09T05:31:38.642Z,8.20
2019-05-09T05:33:08.086Z,8.97
2019-05-09T05:34:44.271Z,6.97
2019-05-09T05:36:10.218Z,7.77
2019-05-09T05:37:35.723Z,7.77
2019-05-09T05:39:02.352Z,6.40
2019-05-09T05:40:33.025Z,8.20
2019-05-09T05:41:55.015Z,8.03
2019-05-09T05:43:20.514Z,8.98
2019-05-09T05:44:47.609Z,8.70
2019-05-09T05:46:34.921Z,8.00
2019-05-09T05:48:04.912Z,7.40
2019-05-09T05:49:30.362Z,8.10
2019-05-09T05:50:57.772Z,8.07
2019-05-09T05:52:23.060Z,7.80
2019-05-09T05:53:48.512Z,7.40
2019-05-09T05:55:14.619Z,7.27
2019-05-09T05:56:40.482Z,7.40
2019-05-09T05:58:08.395Z,6.93
2019-05-09T05:59:39.843Z,7.00
2019-05-09T06:01:04.321Z,8.27
2019-05-09T06:02:28.955Z,7.33
2019-05-09T06:03:54.419Z,8.33
2019-05-09T06:05:19.850Z,7.43
2019-05-09T06:06:47.823Z,8.60
2019-05-09T06:08:12.556Z,7.63
2019-05-09T06:09:38.207Z,8.13
2019-05-09T06:11:09.475Z,8.00
2019-05-09T06:12:32.308Z,8.00
2019-05-09T06:14:05.275Z,7.50
2019-05-09T06:15:24.849Z,7.93
2019-05-09T06:16:50.434Z,7.50
2019-05-09T06:18:18.157Z,7.47
2019-05-09T06:19:42.970Z,8.20
2019-05-09T06:21:08.962Z,8.50
2019-05-09T06:22:37.970Z,8.43
2019-05-09T06:24:02.744Z,8.10
2019-05-09T06:25:30.439Z,8.50
2019-05-09T06:26:55.498Z,7.30
2019-05-09T06:28:20.962Z,10.27
2019-05-09T06:29:47.681Z,8.70
2019-05-09T06:31:13.427Z,8.37
2019-05-09T06:32:38.864Z,6.27
2019-05-09T06:34:08.377Z,7.43
2019-05-09T06:35:34.210Z,6.77
2019-05-09T06:37:03.008Z,9.00
2019-05-09T06:38:28.272Z,8.23
2019-05-09T06:39:54.052Z,7.23
2019-05-09T06:41:19.524Z,9.20
2019-05-09T06:42:45.018Z,8.30
2019-05-09T06:44:28.094Z,6.57
2019-05-09T06:46:20.980Z,7.97
2019-05-09T06:47:48.694Z,6.40
2019-05-09T06:49:27.667Z,8.47
2019-05-09T06:50:45.416Z,7.75
2019-05-09T06:52:10.912Z,8.13
2019-05-09T06:53:38.006Z,8.20
2019-05-09T06:55:03.664Z,7.83
2019-05-09T06:56:29.162Z,7.00
2019-05-09T06:57:54.751Z,8.10
2019-05-09T06:59:20.183Z,8.10
2019-05-09T07:00:51.604Z,8.00
2019-05-09T07:02:35.960Z,7.80
2019-05-09T07:04:09.470Z,7.90
2019-05-09T07:05:57.573Z,8.70
2019-05-09T07:07:40.365Z,7.83
2019-05-09T07:09:24.697Z,7.87
2019-05-09T07:10:50.235Z,7.30
2019-05-09T07:12:17.917Z,7.17
2019-05-09T07:13:42.819Z,7.77
2019-05-09T07:15:08.951Z,7.27
2019-05-09T07:16:34.541Z,7.73
2019-05-09T07:18:00.038Z,8.00
2019-05-09T07:19:27.863Z,7.00
2019-05-09T07:20:52.685Z,7.63
2019-05-09T07:22:39.175Z,7.43
2019-05-09T07:24:04.126Z,6.60
2019-05-09T07:25:47.888Z,7.20
2019-05-09T07:27:13.548Z,8.47
2019-05-09T07:28:39.247Z,7.00
2019-05-09T07:30:30.224Z,9.43
2019-05-09T07:32:08.756Z,8.20
2019-05-09T07:33:58.736Z,7.57
2019-05-09T07:35:23.875Z,6.90
2019-05-09T07:36:49.467Z,7.90
2019-05-09T07:38:17.184Z,8.23
2019-05-09T07:39:42.035Z,8.47
2019-05-09T07:41:08.831Z,8.40
2019-05-09T07:42:34.794Z,8.60
2019-05-09T07:44:00.304Z,8.33
2019-05-09T07:45:27.987Z,7.50
2019-05-09T07:46:58.065Z,7.60
2019-05-09T07:48:23.736Z,7.50
2019-05-09T07:49:49.223Z,7.33
2019-05-09T07:51:14.791Z,8.17
2019-05-09T07:52:40.248Z,7.80
2019-05-09T07:54:20.677Z,7.83
2019-05-09T07:55:32.870Z,7.20
2019-05-09T07:56:58.347Z,7.43
2019-05-09T07:58:23.831Z,7.80
2019-05-09T07:59:49.351Z,8.60
2019-05-09T08:01:15.041Z,9.70
2019-05-09T08:02:40.472Z,6.90
2019-05-09T08:04:07.507Z,7.67
2019-05-09T08:05:33.480Z,7.83
2019-05-09T08:06:58.957Z,8.37
2019-05-09T08:08:24.608Z,7.43
2019-05-09T08:09:50.068Z,7.30
2019-05-09T08:11:17.821Z,7.50
2019-05-09T08:12:42.764Z,6.80
2019-05-09T08:14:10.817Z,6.43
2019-05-09T08:15:35.395Z,6.90
2019-05-09T08:17:00.832Z,6.93
2019-05-09T08:18:28.976Z,7.30
2019-05-09T08:19:58.109Z,7.70
2019-05-09T08:21:21.503Z,9.37
2019-05-09T08:22:57.239Z,8.30
2019-05-09T08:24:14.051Z,8.10
2019-05-09T08:25:39.537Z,7.50
2019-05-09T08:27:05.012Z,8.93
2019-05-09T08:28:30.483Z,10.10
2019-05-09T08:29:58.163Z,9.63
2019-05-09T08:31:23.205Z,9.13
2019-05-09T08:32:48.869Z,8.47
2019-05-09T08:34:14.356Z,8.53
2019-05-09T08:35:39.805Z,9.03
2019-05-09T08:37:05.264Z,8.60
2019-05-09T08:38:30.731Z,7.77
2019-05-09T08:39:59.097Z,8.27
2019-05-09T08:41:24.615Z,8.13
2019-05-09T08:42:50.038Z,8.07
2019-05-09T08:44:18.408Z,8.10
2019-05-09T08:45:43.003Z,8.30
2019-05-09T08:47:08.580Z,9.20
2019-05-09T08:48:34.156Z,8.43
2019-05-09T08:50:13.334Z,9.53
2019-05-09T08:52:05.958Z,9.07
2019-05-09T08:53:15.864Z,8.67
2019-05-09T08:54:43.198Z,7.37
2019-05-09T08:56:12.495Z,7.60
2019-05-09T08:57:37.539Z,8.17
2019-05-09T08:59:03.066Z,8.30
2019-05-09T09:00:31.632Z,8.20
2019-05-09T09:02:14.026Z,8.60
2019-05-09T09:03:28.274Z,9.07
2019-05-09T09:04:53.488Z,9.53
2019-05-09T09:06:18.957Z,8.73
2019-05-09T09:07:44.435Z,8.87
2019-05-09T09:09:10.087Z,9.70
2019-05-09T09:10:38.062Z,8.90
2019-05-09T09:12:02.947Z,9.07
2019-05-09T09:13:29.936Z,10.03
2019-05-09T09:14:55.444Z,9.30
2019-05-09T09:16:22.620Z,8.33
2019-05-09T09:17:49.142Z,8.00
2019-05-09T09:19:14.870Z,9.40
2019-05-09T09:20:40.324Z,8.60
2019-05-09T09:22:08.619Z,9.73
2019-05-09T09:23:44.169Z,8.47
2019-05-09T09:25:00.467Z,8.97
2019-05-09T09:26:27.717Z,9.60
2019-05-09T09:27:53.039Z,9.83
2019-05-09T09:29:18.492Z,7.50
2019-05-09T09:30:44.068Z,8.67
2019-05-09T09:32:09.604Z,8.97
2019-05-09T09:33:37.457Z,8.63
2019-05-09T09:35:02.488Z,8.57
2019-05-09T09:36:28.258Z,9.67
2019-05-09T09:37:54.316Z,9.53
2019-05-09T09:39:19.901Z,8.60
2019-05-09T09:40:47.571Z,9.20
2019-05-09T09:42:12.415Z,9.90
2019-05-09T09:43:38.504Z,8.60
2019-05-09T09:45:04.580Z,9.53
2019-05-09T09:46:30.180Z,8.30
2019-05-09T09:47:55.633Z,8.47
2019-05-09T09:49:21.079Z,8.77
2019-05-09T09:50:50.925Z,9.10
2019-05-09T09:52:13.683Z,9.37
2019-05-09T09:53:39.175Z,9.50
2019-05-09T09:55:05.011Z,9.87
2019-05-09T09:56:31.615Z,9.33
2019-05-09T09:57:57.872Z,9.50
2019-05-09T09:59:51.641Z,8.63
2019-05-09T10:01:24.802Z,8.23
2019-05-09T10:02:50.388Z,7.73
2019-05-09T10:04:23.727Z,9.40
2019-05-09T10:05:44.537Z,8.40
2019-05-09T10:07:10.174Z,7.83
2019-05-09T10:08:39.202Z,8.00
2019-05-09T10:10:03.099Z,9.30
2019-05-09T10:11:28.744Z,7.23
2019-05-09T10:12:54.464Z,7.83
2019-05-09T10:14:29.211Z,7.83
2019-05-09T10:16:17.909Z,9.07
2019-05-09T10:17:43.560Z,7.70
2019-05-09T10:19:27.959Z,8.60
2019-05-09T10:21:09.049Z,6.47
2019-05-09T10:22:34.553Z,9.50
2019-05-09T10:23:59.996Z,7.60
2019-05-09T10:25:27.486Z,8.60
2019-05-09T10:27:12.608Z,8.40
2019-05-09T10:28:38.188Z,6.80
2019-05-09T10:30:04.135Z,9.80
2019-05-09T10:31:29.729Z,8.80
2019-05-09T10:32:55.189Z,7.93
2019-05-09T10:34:20.656Z,9.00
2019-05-09T10:35:47.914Z,8.23
2019-05-09T10:37:13.355Z,7.80
2019-05-09T10:38:38.930Z,9.90
2019-05-09T10:40:04.640Z,7.77
2019-05-09T10:41:30.089Z,7.80
2019-05-09T10:43:14.382Z,8.07
2019-05-09T10:44:43.738Z,7.40
2019-05-09T10:46:46.254Z,7.83
2019-05-09T10:47:57.541Z,7.30
2019-05-09T10:49:22.685Z,8.57
2019-05-09T10:50:54.263Z,8.00
2019-05-09T10:52:18.026Z,7.83
2019-05-09T10:53:42.423Z,7.63
2019-05-09T10:55:09.053Z,7.83
2019-05-09T10:56:35.006Z,10.63
2019-05-09T10:58:02.277Z,8.77
2019-05-09T10:59:27.608Z,8.87
2019-05-09T11:00:53.173Z,8.47
2019-05-09T11:02:18.759Z,10.90
2019-05-09T11:03:44.414Z,9.17
2019-05-09T11:05:10.233Z,10.00
2019-05-09T11:06:38.312Z,10.20
2019-05-09T11:08:04.296Z,8.93
2019-05-09T11:09:29.863Z,10.57
2019-05-09T11:10:57.889Z,8.40
2019-05-09T11:12:22.688Z,8.23
2019-05-09T11:13:48.574Z,8.87
2019-05-09T11:15:14.344Z,7.57
2019-05-09T11:16:46.170Z,9.70
2019-05-09T11:18:08.141Z,7.30
2019-05-09T11:19:35.022Z,9.10
2019-05-09T11:21:00.681Z,6.03
2019-05-09T11:22:28.904Z,7.30
2019-05-09T11:23:53.248Z,7.20
2019-05-09T11:25:18.747Z,7.27
2019-05-09T11:26:44.349Z,7.30
2019-05-09T11:28:12.610Z,8.10
2019-05-09T11:29:38.824Z,7.40
2019-05-09T11:31:04.603Z,7.07
2019-05-09T11:32:30.130Z,6.80
2019-05-09T11:33:57.912Z,7.83
2019-05-09T11:35:22.807Z,7.20
2019-05-09T11:36:49.848Z,7.47
2019-05-09T11:38:29.837Z,7.10
2019-05-09T11:39:42.763Z,7.83
2019-05-09T11:41:11.266Z,8.10
2019-05-09T11:42:38.131Z,7.87
2019-05-09T11:44:03.796Z,7.33
2019-05-09T11:45:29.360Z,6.80
2019-05-09T11:46:54.928Z,6.30
2019-05-09T11:48:20.413Z,7.10
2019-05-09T11:49:48.130Z,5.80
2019-05-09T11:51:13.300Z,7.17
2019-05-09T11:52:38.832Z,6.60
2019-05-09T11:54:04.556Z,4.97
2019-05-09T11:55:35.938Z,5.70
2019-05-09T11:56:57.711Z,5.90
2019-05-09T11:58:23.359Z,7.00
2019-05-09T11:59:48.860Z,6.73
2019-05-09T12:01:14.339Z,6.10
2019-05-09T12:02:39.851Z,6.07
2019-05-09T12:04:05.301Z,6.40
2019-05-09T12:05:30.796Z,6.87
2019-05-09T12:06:57.747Z,5.63
2019-05-09T12:08:23.523Z,6.73
2019-05-09T12:09:49.071Z,5.77
2019-05-09T12:11:14.712Z,10.13
2019-05-09T12:12:41.523Z,6.03
2019-05-09T12:14:08.845Z,6.43
2019-05-09T12:15:34.581Z,6.23
2019-05-09T12:17:00.010Z,8.00
2019-05-09T12:18:25.440Z,7.07
2019-05-09T12:19:50.922Z,5.90
2019-05-09T12:21:19.233Z,5.70
2019-05-09T12:22:43.535Z,6.63
2019-05-09T12:24:09.267Z,6.60
2019-05-09T12:25:34.812Z,6.23
2019-05-09T12:27:03.046Z,4.97
2019-05-09T12:28:27.403Z,6.70
2019-05-09T12:29:52.856Z,5.70
2019-05-09T12:31:18.540Z,5.77
2019-05-09T12:32:44.124Z,6.00
2019-05-09T12:34:09.776Z,5.27
2019-05-09T12:35:35.226Z,5.33
2019-05-09T12:37:00.835Z,5.90
2019-05-09T12:38:27.727Z,5.27
2019-05-09T12:39:53.423Z,4.77
2019-05-09T12:41:19.380Z,5.03
2019-05-09T12:42:45.007Z,5.20
2019-05-09T12:44:11.475Z,5.57
2019-05-09T12:45:38.788Z,5.10
2019-05-09T12:47:04.490Z,5.93
2019-05-09T12:48:29.952Z,5.93
2019-05-09T12:49:58.080Z,5.93
2019-05-09T12:51:22.839Z,5.77
2019-05-09T12:52:48.849Z,5.43
2019-05-09T12:54:15.468Z,6.03
2019-05-09T12:55:42.484Z,5.40
2019-05-09T12:57:08.146Z,6.43
2019-05-09T12:58:33.798Z,5.10
2019-05-09T12:59:59.240Z,5.27
2019-05-09T13:03:29.326Z,5.13
2019-05-09T13:05:24.221Z,6.23
2019-05-09T13:08:51.060Z,6.30
2019-05-09T13:10:19.406Z,6.53
2019-05-09T13:11:44.235Z,5.80
2019-05-09T13:13:09.684Z,5.50
2019-05-09T13:14:37.981Z,7.33
2019-05-09T13:16:39.062Z,6.00
2019-05-09T13:17:52.167Z,6.67
2019-05-09T13:19:19.049Z,7.60
2019-05-09T13:20:44.528Z,7.97
2019-05-09T13:22:10.848Z,6.90
2019-05-09T13:23:36.588Z,7.47
2019-05-09T13:25:02.997Z,6.40
2019-05-09T13:26:29.245Z,6.13
2019-05-09T13:27:55.079Z,5.80
2019-05-09T13:29:20.976Z,6.50
2019-05-09T13:30:48.902Z,7.13
2019-05-09T13:32:13.939Z,7.07
2019-05-09T13:33:41.342Z,6.80
2019-05-09T13:35:07.585Z,6.67
2019-05-09T13:36:33.175Z,6.43
2019-05-09T13:37:59.752Z,6.30
2019-05-09T13:39:27.799Z,7.53
2019-05-09T13:42:39.489Z,5.77
2019-05-09T13:44:10.150Z,7.17
2019-05-09T13:45:32.428Z,7.57
2019-05-09T13:46:58.520Z,7.57
2019-05-09T13:48:46.655Z,7.30
2019-05-09T13:49:55.793Z,6.60
2019-05-09T13:51:20.381Z,6.00
2019-05-09T13:52:47.849Z,6.17
2019-05-09T13:54:13.073Z,6.80
2019-05-09T13:55:38.996Z,6.40
2019-05-09T13:57:04.714Z,7.20
2019-05-09T13:58:30.190Z,6.37
2019-05-09T13:59:55.664Z,6.93
2019-05-09T14:01:21.160Z,7.17
2019-05-09T14:02:48.803Z,7.00
2019-05-09T14:04:14.482Z,5.60
2019-05-09T14:05:40.364Z,6.27
2019-05-09T14:07:08.302Z,6.37
2019-05-09T14:08:38.982Z,5.60
2019-05-09T14:10:18.150Z,4.90
2019-05-09T14:11:48.399Z,6.40
2019-05-09T14:13:27.896Z,4.80
2019-05-09T14:15:03.394Z,5.70
2019-05-09T14:16:32.107Z,6.00
2019-05-09T14:18:12.510Z,5.97
2019-05-09T14:19:44.377Z,5.33
2019-05-09T14:21:09.301Z,5.20
2019-05-09T14:22:39.105Z,6.03
2019-05-09T14:24:14.895Z,5.33
2019-05-09T14:25:48.421Z,5.60
2019-05-09T14:27:28.474Z,5.07
2019-05-09T14:29:01.012Z,5.80
2019-05-09T14:30:30.204Z,5.00
2019-05-09T14:32:05.728Z,6.10
2019-05-09T14:34:08.931Z,5.87
2019-05-09T14:35:52.717Z,5.50
2019-05-09T14:37:24.263Z,6.50
2019-05-09T14:39:00.382Z,5.63
2019-05-09T14:40:28.274Z,5.87
2019-05-09T14:42:02.143Z,4.83
2019-05-09T14:43:33.840Z,4.63
2019-05-09T14:45:09.896Z,3.77
2019-05-09T14:46:40.409Z,4.13
2019-05-09T14:48:23.681Z,5.33
2019-05-09T14:50:00.668Z,4.07
2019-05-09T14:51:37.936Z,4.50
2019-05-09T14:53:14.918Z,4.17
2019-05-09T14:54:41.077Z,3.57
2019-05-09T14:56:27.901Z,4.40
2019-05-09T14:57:57.845Z,4.43
2019-05-09T14:59:32.105Z,3.40
2019-05-09T15:01:28.415Z,3.23
2019-05-09T15:02:48.891Z,3.80
2019-05-09T15:04:24.724Z,3.80
2019-05-09T15:06:10.912Z,3.53
2019-05-09T15:07:40.891Z,4.07
2019-05-09T15:09:11.752Z,4.00
2019-05-09T15:10:43.893Z,3.17
2019-05-09T15:12:18.451Z,3.73
2019-05-09T15:13:59.135Z,3.93
2019-05-09T15:15:34.296Z,4.33
2019-05-09T15:17:08.859Z,4.27
2019-05-09T15:18:38.656Z,3.97
2019-05-09T15:20:24.172Z,3.37
2019-05-09T15:21:58.011Z,3.90
2019-05-09T15:23:39.070Z,3.73
2019-05-09T15:25:08.555Z,3.73
2019-05-09T15:26:37.910Z,4.87
2019-05-09T15:28:24.463Z,4.20
2019-05-09T15:30:05.138Z,3.60
2019-05-09T15:31:43.297Z,3.33
2019-05-09T15:33:27.336Z,3.90
2019-05-09T15:34:57.552Z,4.20
2019-05-09T15:36:28.657Z,4.07
2019-05-09T15:37:54.159Z,5.23
2019-05-09T15:39:19.749Z,3.80
2019-05-09T15:40:47.918Z,5.33
2019-05-09T15:42:12.419Z,3.53
2019-05-09T15:43:38.228Z,4.40
2019-05-09T15:45:04.230Z,4.57
2019-05-09T15:46:38.412Z,4.30
2019-05-09T15:48:04.084Z,3.63
2019-05-09T15:49:29.601Z,5.40
2019-05-09T15:50:55.224Z,3.20
2019-05-09T15:52:21.026Z,3.67
2019-05-09T15:53:49.404Z,4.00
2019-05-09T15:55:17.569Z,3.70
2019-05-09T15:56:44.289Z,4.53
2019-05-09T15:58:09.603Z,4.63
2019-05-09T15:59:35.106Z,4.30
2019-05-09T16:01:00.701Z,5.53
2019-05-09T16:02:28.243Z,5.40
2019-05-09T16:03:54.171Z,4.73
2019-05-09T16:05:19.731Z,4.23
2019-05-09T16:06:49.408Z,4.50
2019-05-09T16:08:12.381Z,4.03
2019-05-09T16:09:37.926Z,4.23
2019-05-09T16:11:03.457Z,5.27
2019-05-09T16:12:28.944Z,4.07
2019-05-09T16:13:54.450Z,3.80
2019-05-09T16:15:22.419Z,4.20
2019-05-09T16:16:48.060Z,5.00
2019-05-09T16:18:13.588Z,4.67
2019-05-09T16:19:39.303Z,5.20
2019-05-09T16:21:04.906Z,6.10
2019-05-09T16:22:30.410Z,4.50
2019-05-09T16:23:55.999Z,4.70
2019-05-09T16:25:22.943Z,5.23
2019-05-09T16:26:48.929Z,4.30
2019-05-09T16:28:14.921Z,4.70
2019-05-09T16:29:40.506Z,4.30
2019-05-09T16:31:08.116Z,4.60
2019-05-09T16:32:33.596Z,5.30
2019-05-09T16:33:59.093Z,4.87
2019-05-09T16:35:24.561Z,4.03
2019-05-09T16:36:52.968Z,4.30
2019-05-09T16:38:18.961Z,4.37
2019-05-09T16:39:44.658Z,4.77
2019-05-09T16:41:10.252Z,3.87
2019-05-09T16:42:37.957Z,5.28
2019-05-09T16:44:03.046Z,4.33
2019-05-09T16:45:28.930Z,4.27
2019-05-09T16:46:57.648Z,4.73
2019-05-09T16:48:27.621Z,4.30
2019-05-09T16:49:53.558Z,5.57
2019-05-09T16:51:19.275Z,5.10
2019-05-09T16:52:44.766Z,5.30
2019-05-09T16:54:10.223Z,4.83
2019-05-09T16:55:38.082Z,5.33
2019-05-09T16:57:04.468Z,4.47
2019-05-09T16:58:30.158Z,4.00
2019-05-09T16:59:55.792Z,4.60
2019-05-09T17:01:21.589Z,5.00
2019-05-09T17:02:48.153Z,4.50
2019-05-09T17:04:13.841Z,4.90
2019-05-09T17:05:43.864Z,3.97
2019-05-09T17:07:09.436Z,4.87
2019-05-09T17:08:35.195Z,4.17
2019-05-09T17:10:00.664Z,4.63
2019-05-09T17:11:31.854Z,4.30
2019-05-09T17:12:58.283Z,5.50
2019-05-09T17:14:23.994Z,4.80
2019-05-09T17:15:49.734Z,4.40
2019-05-09T17:17:17.670Z,4.70
2019-05-09T17:18:42.557Z,5.43
2019-05-09T17:20:09.743Z,6.57
2019-05-09T17:21:58.369Z,4.80
2019-05-09T17:23:24.299Z,5.37
2019-05-09T17:24:50.716Z,5.40
2019-05-09T17:26:17.547Z,5.67
2019-05-09T17:27:43.434Z,6.10
2019-05-09T17:29:08.892Z,6.50
2019-05-09T17:30:34.559Z,4.63
2019-05-09T17:32:00.216Z,4.77
2019-05-09T17:33:28.457Z,5.70
2019-05-09T17:34:52.964Z,6.07
2019-05-09T17:36:18.491Z,5.80
2019-05-09T17:37:44.160Z,5.97
2019-05-09T17:39:09.862Z,5.50
2019-05-09T17:40:35.364Z,6.37
2019-05-09T17:42:00.859Z,6.30
2019-05-09T17:43:27.872Z,4.93
2019-05-09T17:44:53.752Z,5.47
2019-05-09T17:46:19.288Z,6.00
2019-05-09T17:47:44.801Z,4.90
2019-05-09T17:49:10.492Z,5.57
2019-05-09T17:50:38.418Z,4.40
2019-05-09T17:52:03.191Z,5.30
2019-05-09T17:53:31.260Z,4.77
2019-05-09T17:54:55.896Z,5.73
2019-05-09T17:56:21.395Z,4.67
2019-05-09T17:57:47.932Z,5.13
2019-05-09T17:59:13.660Z,5.30
2019-05-09T18:00:39.911Z,5.60
2019-05-09T18:02:05.380Z,5.60
2019-05-09T18:03:30.909Z,7.17
2019-05-09T18:04:58.267Z,4.77
2019-05-09T18:06:23.584Z,5.40
2019-05-09T18:07:49.049Z,5.50
2019-05-09T18:09:14.666Z,6.93
2019-05-09T18:10:40.150Z,5.87
2019-05-09T18:12:08.104Z,5.57
2019-05-09T18:13:33.345Z,4.47
2019-05-09T18:14:59.034Z,5.43
2019-05-09T18:16:24.624Z,6.70
2019-05-09T18:17:50.085Z,5.90
2019-05-09T18:19:17.271Z,6.87
2019-05-09T18:20:43.109Z,5.90
2019-05-09T18:22:08.876Z,5.37
2019-05-09T18:23:34.585Z,5.33
2019-05-09T18:25:00.245Z,6.10
2019-05-09T18:26:28.613Z,6.63
2019-05-09T18:27:57.488Z,6.03
2019-05-09T18:29:21.326Z,6.40
2019-05-09T18:30:47.844Z,5.57
2019-05-09T18:32:33.664Z,5.23
2019-05-09T18:34:02.158Z,4.73
2019-05-09T18:35:27.979Z,5.67
2019-05-09T18:36:53.423Z,5.93
2019-05-09T18:38:28.532Z,6.00
2019-05-09T18:39:54.011Z,5.67
2019-05-09T18:41:19.595Z,6.20
2019-05-09T18:42:47.433Z,5.13
2019-05-09T18:44:12.566Z,6.20
2019-05-09T18:45:38.215Z,6.23
2019-05-09T18:47:07.837Z,6.97
2019-05-09T18:48:33.691Z,7.10
2019-05-09T18:49:59.261Z,6.90
2019-05-09T18:51:28.563Z,7.40
2019-05-09T18:52:52.347Z,6.53
2019-05-09T18:54:17.885Z,7.17
2019-05-09T18:55:43.676Z,6.80
2019-05-09T18:57:09.124Z,8.17
2019-05-09T18:58:36.036Z,7.20
2019-05-09T19:00:02.148Z,6.97
2019-05-09T19:01:28.125Z,7.07
2019-05-09T19:02:53.805Z,7.20
2019-05-09T19:04:21.851Z,7.07
2019-05-09T19:05:47.404Z,8.47
2019-05-09T19:07:22.299Z,13.60
2019-05-09T19:08:43.366Z,13.00
2019-05-09T19:10:09.678Z,9.97
2019-05-09T19:11:38.354Z,8.43
2019-05-09T19:13:03.900Z,10.40
2019-05-09T19:14:29.670Z,8.97
2019-05-09T19:16:08.588Z,8.57
2019-05-09T19:17:58.956Z,8.83
2019-05-09T19:19:31.316Z,9.43
2019-05-09T19:21:04.948Z,9.67
2019-05-09T19:22:30.374Z,7.97
2019-05-09T19:23:55.927Z,8.13
2019-05-09T19:25:21.403Z,9.20
2019-05-09T19:26:46.952Z,8.60
2019-05-09T19:28:12.456Z,7.00
2019-05-09T19:29:39.699Z,8.07
2019-05-09T19:31:05.321Z,7.80
2019-05-09T19:32:31.171Z,8.07
2019-05-09T19:33:56.705Z,7.00
2019-05-09T19:35:22.315Z,9.80
2019-05-09T19:36:47.785Z,8.70
2019-05-09T19:38:13.220Z,8.70